Time;durP1;ratioP1;P1;durP2;ratioP2;P2;SDS_P1;SDS_P2;PMS_P1;PMS_P2;Temp;Humidity;BMP_temperature;BMP_pressure;BME280_temperature;BME280_humidity;BME280_pressure;Samples;Min_cycle;Max_cycle;Signal;HPM_P1;HPM_P2
2022/06/16 00:00:21;;;;;;;3.80;3.20;;;19.40;94.80;;;;;;5054086;28;20574;-72
2022/06/16 00:02:50;;;;;;;3.20;2.95;;;19.40;94.90;;;;;;5053783;28;20181;-71
2022/06/16 00:05:19;;;;;;;4.32;3.05;;;19.40;95.40;;;;;;5054295;28;20532;-71
2022/06/16 00:07:46;;;;;;;3.55;3.25;;;19.30;95.70;;;;;;5053789;28;20548;-72
2022/06/16 00:10:12;;;;;;;4.10;3.33;;;19.30;95.90;;;;;;5054025;28;20683;-71
2022/06/16 00:12:38;;;;;;;3.78;3.25;;;19.30;96.20;;;;;;5053571;28;20224;-72
2022/06/16 00:15:09;;;;;;;3.88;3.13;;;19.20;96.70;;;;;;5053860;28;20708;-72
2022/06/16 00:17:34;;;;;;;5.13;3.60;;;19.20;96.90;;;;;;5052863;28;20193;-72
2022/06/16 00:20:04;;;;;;;4.38;3.30;;;19.20;97.00;;;;;;5052970;28;20315;-72
2022/06/16 00:22:30;;;;;;;4.88;3.55;;;19.20;97.20;;;;;;5053541;28;20184;-71
2022/06/16 00:24:56;;;;;;;4.75;3.22;;;19.10;97.30;;;;;;5053561;28;20200;-72
2022/06/16 00:27:21;;;;;;;3.95;3.38;;;19.10;97.30;;;;;;5052972;28;20177;-72
2022/06/16 00:29:47;;;;;;;3.45;3.15;;;19.00;97.60;;;;;;5053808;28;20185;-71
2022/06/16 00:32:13;;;;;;;4.90;3.95;;;19.00;97.90;;;;;;5052740;28;20182;-72
2022/06/16 00:34:38;;;;;;;4.50;3.38;;;18.90;98.20;;;;;;5053659;28;20184;-72
2022/06/16 00:37:04;;;;;;;4.35;3.60;;;18.80;98.60;;;;;;5052817;28;20260;-72
2022/06/16 00:39:30;;;;;;;4.00;3.38;;;18.80;98.80;;;;;;5053541;28;20229;-72
2022/06/16 00:41:55;;;;;;;6.70;3.20;;;18.80;98.90;;;;;;5052661;28;20181;-72
2022/06/16 00:44:23;;;;;;;4.05;2.75;;;18.80;98.90;;;;;;5053136;28;20181;-72
2022/06/16 00:46:49;;;;;;;3.20;2.90;;;18.80;98.90;;;;;;5053054;28;20663;-71
2022/06/16 00:49:15;;;;;;;3.90;3.50;;;18.80;99.00;;;;;;5053124;28;20181;-71
2022/06/16 00:51:46;;;;;;;4.55;3.25;;;18.70;99.00;;;;;;5052630;28;20177;-71
2022/06/16 00:54:28;;;;;;;4.25;3.53;;;18.70;99.50;;;;;;5052934;28;20260;-72
2022/06/16 00:56:57;;;;;;;5.00;3.50;;;18.60;99.60;;;;;;5052883;28;20671;-72
2022/06/16 00:59:23;;;;;;;3.97;3.58;;;18.60;99.90;;;;;;5052775;28;20241;-72
2022/06/16 01:01:49;;;;;;;3.45;3.10;;;18.60;99.90;;;;;;5052786;28;20216;-70
2022/06/16 01:07:05;;;;;;;5.43;3.45;;;18.50;99.90;;;;;;5052798;28;20558;-72
2022/06/16 01:09:33;;;;;;;5.78;3.40;;;18.50;99.90;;;;;;5052802;28;20235;-72
2022/06/16 01:15:40;;;;;;;6.03;2.97;;;18.30;99.90;;;;;;5053251;28;20679;-71
2022/06/16 01:18:17;;;;;;;3.47;3.10;;;18.30;99.90;;;;;;5048174;28;20279;-71
2022/06/16 01:21:00;;;;;;;3.88;3.10;;;18.30;99.90;;;;;;5052262;28;20643;-72
2022/06/16 01:23:59;;;;;;;4.13;3.00;;;18.20;99.90;;;;;;5052184;28;20177;-72
2022/06/16 01:26:49;;;;;;;5.45;3.83;;;18.20;99.90;;;;;;5052424;28;20235;-72
2022/06/16 01:29:36;;;;;;;5.15;2.92;;;18.20;99.90;;;;;;5032379;28;20703;-72
2022/06/16 01:32:16;;;;;;;3.60;3.05;;;18.20;99.90;;;;;;5037296;28;20173;-72
2022/06/16 01:34:57;;;;;;;5.78;3.30;;;18.10;99.90;;;;;;5052692;28;20169;-72
2022/06/16 01:37:36;;;;;;;4.88;3.05;;;18.10;99.90;;;;;;5052005;28;20659;-73
2022/06/16 01:40:42;;;;;;;3.22;2.92;;;18.10;99.90;;;;;;5052124;28;20227;-72
2022/06/16 01:43:26;;;;;;;5.90;3.22;;;18.10;99.90;;;;;;5032310;28;20192;-72
2022/06/16 01:46:01;;;;;;;5.32;3.05;;;18.10;99.90;;;;;;5037745;28;20177;-72
2022/06/16 01:48:28;;;;;;;3.50;3.13;;;18.10;99.90;;;;;;5052112;28;20177;-73
2022/06/16 01:51:21;;;;;;;6.72;3.45;;;18.10;99.90;;;;;;5052188;28;20199;-73
2022/06/16 01:53:55;;;;;;;3.67;3.38;;;18.00;99.90;;;;;;5064246;28;20190;-71
2022/06/16 01:56:28;;;;;;;3.70;3.08;;;18.00;99.90;;;;;;5042464;28;20177;-73
2022/06/16 01:59:01;;;;;;;3.47;3.15;;;18.00;99.90;;;;;;5051775;28;20665;-72
2022/06/16 02:01:34;;;;;;;4.90;3.40;;;17.90;99.90;;;;;;5052220;28;20648;-72
2022/06/16 02:04:06;;;;;;;3.85;3.22;;;17.90;99.90;;;;;;5051774;28;20530;-72
2022/06/16 02:06:36;;;;;;;3.70;3.20;;;17.80;99.90;;;;;;5051754;28;20177;-72
2022/06/16 02:09:07;;;;;;;4.38;3.28;;;17.70;99.90;;;;;;5052018;28;20193;-72
2022/06/16 02:11:34;;;;;;;4.03;3.40;;;17.70;99.90;;;;;;5051812;28;20177;-72
2022/06/16 02:14:28;;;;;;;3.67;3.08;;;17.70;99.90;;;;;;5051298;28;20185;-72
2022/06/16 02:16:54;;;;;;;5.00;3.60;;;17.70;99.90;;;;;;5051666;28;20184;-72
2022/06/16 02:19:22;;;;;;;4.90;3.00;;;17.60;99.90;;;;;;5051231;28;20240;-72
2022/06/16 02:21:50;;;;;;;3.72;3.33;;;17.60;99.90;;;;;;5051929;28;20581;-71
2022/06/16 02:24:19;;;;;;;3.90;3.58;;;17.60;99.90;;;;;;5051601;28;20693;-72
2022/06/16 02:26:45;;;;;;;3.95;3.30;;;17.60;99.90;;;;;;5051686;28;20203;-72
2022/06/16 02:29:30;;;;;;;5.97;3.53;;;17.50;99.90;;;;;;5051467;28;20546;-72
2022/06/16 02:32:31;;;;;;;4.22;3.58;;;17.40;99.90;;;;;;5051411;28;20200;-72
2022/06/16 02:35:27;;;;;;;5.53;3.42;;;17.40;99.90;;;;;;5051207;28;20194;-73
2022/06/16 02:38:04;;;;;;;4.45;3.25;;;17.40;99.90;;;;;;5031988;28;20479;-72
2022/06/16 02:41:03;;;;;;;3.30;3.00;;;17.40;99.90;;;;;;5051716;28;20216;-72
2022/06/16 02:43:35;;;;;;;4.38;3.28;;;17.40;99.90;;;;;;5055514;28;20189;-73
2022/06/16 02:46:11;;;;;;;4.07;3.17;;;17.30;99.90;;;;;;5053118;28;20554;-73
2022/06/16 02:48:48;;;;;;;3.83;3.47;;;17.30;99.90;;;;;;5054995;28;20195;-73
2022/06/16 02:51:27;;;;;;;4.40;3.40;;;17.30;99.90;;;;;;5055081;28;20180;-72
2022/06/16 02:54:07;;;;;;;4.35;3.63;;;17.30;99.90;;;;;;5054191;28;20580;-72
2022/06/16 02:56:46;;;;;;;4.28;3.60;;;17.30;99.90;;;;;;5054927;28;20177;-74
2022/06/16 02:59:17;;;;;;;6.28;3.72;;;17.30;99.90;;;;;;5054865;28;20256;-74
2022/06/16 03:01:42;;;;;;;5.95;3.50;;;17.30;99.90;;;;;;5054745;28;20185;-73
2022/06/16 03:04:13;;;;;;;4.25;3.75;;;17.30;99.90;;;;;;5054910;28;20239;-73
2022/06/16 03:06:38;;;;;;;3.95;3.55;;;17.20;99.90;;;;;;5054574;28;20653;-73
2022/06/16 03:09:04;;;;;;;6.10;3.88;;;17.10;99.90;;;;;;5054111;28;20282;-73
2022/06/16 03:11:32;;;;;;;6.15;3.65;;;17.10;99.90;;;;;;5054092;28;20209;-72
2022/06/16 03:13:58;;;;;;;4.38;3.50;;;17.10;99.90;;;;;;5054031;28;20748;-74
2022/06/16 03:16:23;;;;;;;4.10;3.45;;;17.10;99.90;;;;;;5054613;28;20269;-73
2022/06/16 03:18:49;;;;;;;4.10;3.70;;;17.10;99.90;;;;;;5054469;28;20700;-73
2022/06/16 03:21:15;;;;;;;4.25;3.50;;;17.10;99.90;;;;;;5055571;28;20192;-73
2022/06/16 03:23:41;;;;;;;4.30;3.80;;;17.00;99.90;;;;;;5055501;28;20595;-72
2022/06/16 03:26:06;;;;;;;5.00;3.50;;;17.00;99.90;;;;;;5054429;28;20234;-71
2022/06/16 03:28:32;;;;;;;5.60;3.40;;;16.90;99.90;;;;;;5054291;28;20208;-71
2022/06/16 03:30:57;;;;;;;5.00;3.70;;;16.90;99.90;;;;;;5054973;28;20272;-71
2022/06/16 03:33:23;;;;;;;5.18;3.60;;;17.00;99.90;;;;;;5054180;28;20338;-68
2022/06/16 03:35:49;;;;;;;4.32;3.67;;;17.00;99.90;;;;;;5052884;28;20295;-68
2022/06/16 03:41:12;;;;;;;4.07;3.67;;;17.10;99.90;;;;;;5049169;28;20679;-66
2022/06/16 03:43:39;;;;;;;3.90;3.30;;;17.10;99.90;;;;;;5054485;28;20226;-70
2022/06/16 03:46:05;;;;;;;4.75;3.58;;;17.10;99.90;;;;;;5053609;28;20180;-68
2022/06/16 03:48:32;;;;;;;5.57;3.58;;;17.20;99.90;;;;;;5054256;28;20185;-69
2022/06/16 03:50:58;;;;;;;4.22;3.63;;;17.30;99.90;;;;;;5053341;28;20185;-71
2022/06/16 03:53:23;;;;;;;7.88;5.20;;;17.30;99.90;;;;;;5054381;28;20185;-67
2022/06/16 03:55:49;;;;;;;20.98;14.27;;;17.40;99.90;;;;;;5053789;28;20264;-68
2022/06/16 03:58:15;;;;;;;6.90;5.25;;;17.40;99.90;;;;;;5053330;28;20181;-66
2022/06/16 04:00:41;;;;;;;6.13;5.25;;;17.50;99.90;;;;;;5053736;28;20217;-68
2022/06/16 04:05:52;;;;;;;4.20;3.63;;;17.60;99.90;;;;;;5053671;28;20196;-68
2022/06/16 04:08:19;;;;;;;5.45;3.90;;;17.70;99.90;;;;;;5053676;28;20173;-63
2022/06/16 04:10:46;;;;;;;5.60;4.22;;;17.70;99.90;;;;;;5053714;28;20182;-72
2022/06/16 04:13:12;;;;;;;10.32;6.25;;;17.80;99.90;;;;;;5053886;28;20189;-67
2022/06/16 04:15:38;;;;;;;4.28;3.88;;;17.80;99.90;;;;;;5052475;28;20177;-70
2022/06/16 04:18:03;;;;;;;5.63;4.22;;;17.80;99.90;;;;;;5053421;28;20212;-70
2022/06/16 04:20:30;;;;;;;6.15;4.00;;;17.90;99.90;;;;;;5053077;28;20241;-70
2022/06/16 04:22:55;;;;;;;5.97;3.70;;;18.00;99.90;;;;;;5053376;28;20416;-70
2022/06/16 04:25:30;;;;;;;4.10;3.70;;;18.00;99.90;;;;;;5053203;28;20605;-70
2022/06/16 04:27:59;;;;;;;4.05;3.65;;;18.10;99.90;;;;;;5053840;28;20537;-70
2022/06/16 04:30:26;;;;;;;4.80;3.35;;;18.10;99.90;;;;;;5053585;28;20540;-69
2022/06/16 04:32:51;;;;;;;3.97;3.58;;;18.20;99.90;;;;;;5052522;28;20173;-69
2022/06/16 04:35:17;;;;;;;4.45;3.70;;;18.10;99.90;;;;;;5053823;28;20181;-71
2022/06/16 04:37:42;;;;;;;4.20;3.83;;;18.10;99.90;;;;;;5053769;28;20173;-70
2022/06/16 04:40:10;;;;;;;6.30;3.78;;;18.10;99.90;;;;;;5053503;28;20221;-70
2022/06/16 04:42:36;;;;;;;4.03;3.60;;;18.10;99.90;;;;;;5053660;28;20174;-71
2022/06/16 04:45:02;;;;;;;5.45;3.70;;;18.20;99.90;;;;;;5053517;28;20182;-70
2022/06/16 04:47:28;;;;;;;7.65;3.90;;;18.40;99.90;;;;;;5053382;28;20656;-70
2022/06/16 04:49:53;;;;;;;4.35;3.80;;;18.60;99.90;;;;;;5053484;28;20181;-71
2022/06/16 04:52:19;;;;;;;4.88;3.70;;;18.70;99.90;;;;;;5053608;28;20667;-71
2022/06/16 04:54:45;;;;;;;4.97;3.38;;;18.80;99.90;;;;;;5053405;28;20193;-71
2022/06/16 04:57:11;;;;;;;3.78;3.38;;;18.80;99.90;;;;;;5053107;28;20243;-71
2022/06/16 04:59:37;;;;;;;3.70;3.10;;;18.80;99.90;;;;;;5052707;28;20679;-70
2022/06/16 05:02:03;;;;;;;8.98;4.00;;;18.80;99.90;;;;;;5053118;28;20209;-71
2022/06/16 05:04:29;;;;;;;3.38;2.88;;;18.80;99.90;;;;;;5052070;28;20190;-71
2022/06/16 05:06:55;;;;;;;4.95;3.42;;;18.70;99.90;;;;;;5052964;28;20187;-71
2022/06/16 05:09:21;;;;;;;7.53;3.42;;;18.70;99.90;;;;;;5052751;28;20178;-71
2022/06/16 05:11:47;;;;;;;7.10;3.38;;;18.70;99.90;;;;;;5052944;28;20177;-70
2022/06/16 05:14:12;;;;;;;5.07;3.25;;;18.70;99.90;;;;;;5052947;28;20476;-71
2022/06/16 05:16:38;;;;;;;5.65;3.33;;;18.60;99.90;;;;;;5052820;28;20215;-71
2022/06/16 05:19:03;;;;;;;5.63;3.45;;;18.60;99.90;;;;;;5048289;28;20263;-71
2022/06/16 05:21:29;;;;;;;3.60;3.10;;;18.70;99.90;;;;;;5052966;28;20662;-70
2022/06/16 05:23:55;;;;;;;7.55;3.38;;;18.70;99.90;;;;;;5052927;28;20658;-66
2022/06/16 05:26:21;;;;;;;3.65;3.15;;;18.90;99.90;;;;;;5051815;28;20283;-67
2022/06/16 05:28:46;;;;;;;5.75;3.60;;;19.40;99.90;;;;;;5052910;28;20268;-67
2022/06/16 05:31:12;;;;;;;4.32;3.28;;;19.90;99.90;;;;;;5052438;28;20205;-68
2022/06/16 05:33:37;;;;;;;6.07;3.47;;;20.10;99.20;;;;;;5052805;28;20299;-68
2022/06/16 05:36:07;;;;;;;4.43;3.20;;;20.30;99.10;;;;;;5052225;28;20189;-68
2022/06/16 05:38:33;;;;;;;3.97;3.53;;;20.10;99.00;;;;;;5052412;28;20256;-69
2022/06/16 05:41:03;;;;;;;4.78;3.15;;;20.10;99.30;;;;;;5052311;28;20708;-69
2022/06/16 05:43:29;;;;;;;3.70;3.30;;;20.20;99.70;;;;;;5052603;28;20182;-68
2022/06/16 05:45:55;;;;;;;6.07;3.25;;;21.00;99.80;;;;;;5051805;28;20299;-68
2022/06/16 05:48:21;;;;;;;6.38;3.40;;;22.20;98.10;;;;;;5052996;28;20209;-68
2022/06/16 05:50:47;;;;;;;4.43;3.00;;;23.30;96.30;;;;;;5052237;28;20232;-68
2022/06/16 05:53:13;;;;;;;4.13;3.40;;;24.50;94.10;;;;;;5052486;28;20181;-69
2022/06/16 05:55:38;;;;;;;4.28;3.35;;;25.10;91.50;;;;;;5052357;28;20264;-69
2022/06/16 05:58:04;;;;;;;3.67;3.05;;;25.80;89.50;;;;;;5052038;28;20196;-70
2022/06/16 06:00:31;;;;;;;5.30;3.30;;;26.10;86.00;;;;;;5051984;28;20303;-69
2022/06/16 06:02:58;;;;;;;3.35;2.90;;;26.60;83.30;;;;;;5051873;28;20227;-69
2022/06/16 06:05:24;;;;;;;5.60;2.97;;;27.30;80.70;;;;;;5051506;28;20209;-70
2022/06/16 06:18:47;;;;;;;5.10;2.92;;;27.30;73.60;;;;;;5051614;28;20718;-68
2022/06/16 06:21:12;;;;;;;4.70;3.03;;;27.80;71.80;;;;;;5052253;28;20185;-69
2022/06/16 06:23:38;;;;;;;3.92;3.20;;;27.70;70.20;;;;;;5051837;28;20223;-69
2022/06/16 06:26:03;;;;;;;4.45;3.08;;;27.40;71.00;;;;;;5051913;28;20632;-69
2022/06/16 06:28:29;;;;;;;7.40;3.65;;;26.80;71.90;;;;;;5051746;28;20174;-69
2022/06/16 06:30:54;;;;;;;6.10;3.55;;;26.50;72.80;;;;;;5051933;28;20187;-69
2022/06/16 06:33:20;;;;;;;6.50;3.50;;;26.00;75.40;;;;;;5051807;28;20187;-68
2022/06/16 06:35:46;;;;;;;4.88;3.67;;;25.70;78.00;;;;;;5051940;28;20185;-69
2022/06/16 06:38:13;;;;;;;4.28;3.40;;;25.50;79.20;;;;;;5051459;28;20250;-69
2022/06/16 06:40:39;;;;;;;4.57;3.53;;;25.50;78.90;;;;;;5051013;28;20217;-69
2022/06/16 06:43:05;;;;;;;5.10;3.75;;;25.60;79.20;;;;;;5051949;28;20184;-68
2022/06/16 06:45:30;;;;;;;9.38;4.50;;;25.80;78.50;;;;;;5051610;28;20188;-68
2022/06/16 06:47:56;;;;;;;6.93;4.20;;;25.70;77.80;;;;;;5051544;28;20189;-69
2022/06/16 06:50:26;;;;;;;5.60;4.50;;;25.50;78.80;;;;;;5051353;28;20234;-69
2022/06/16 06:52:52;;;;;;;7.28;4.07;;;25.60;78.60;;;;;;5050466;28;20209;-69
2022/06/16 06:55:19;;;;;;;6.68;4.35;;;26.00;78.60;;;;;;5051807;28;20178;-69
2022/06/16 06:57:45;;;;;;;10.68;4.75;;;26.50;76.70;;;;;;5051276;28;20182;-69
2022/06/16 07:00:15;;;;;;;5.97;4.28;;;26.30;76.70;;;;;;5050976;28;20221;-69
2022/06/16 07:02:42;;;;;;;6.00;4.03;;;26.00;77.40;;;;;;5050733;28;20185;-70
2022/06/16 07:05:08;;;;;;;6.43;4.00;;;25.70;78.20;;;;;;5051418;28;20581;-69
2022/06/16 07:07:35;;;;;;;6.65;4.40;;;25.70;80.40;;;;;;5051687;28;20184;-69
2022/06/16 07:10:01;;;;;;;6.78;4.38;;;26.00;80.00;;;;;;5051741;28;20184;-69
2022/06/16 07:12:26;;;;;;;5.38;4.10;;;26.30;78.60;;;;;;5051621;28;20174;-69
2022/06/16 07:14:52;;;;;;;8.27;4.30;;;26.50;78.90;;;;;;5051432;28;20655;-69
2022/06/16 07:17:21;;;;;;;8.73;4.15;;;26.60;76.70;;;;;;5051606;28;20181;-69
2022/06/16 07:19:47;;;;;;;4.47;4.00;;;26.50;76.70;;;;;;5049950;28;20244;-68
2022/06/16 07:22:12;;;;;;;6.60;4.10;;;26.20;77.90;;;;;;5051410;28;20586;-69
2022/06/16 07:24:38;;;;;;;5.80;4.30;;;25.90;80.00;;;;;;5051613;28;20178;-69
2022/06/16 07:27:05;;;;;;;7.03;4.28;;;26.00;80.40;;;;;;5053020;28;20264;-69
2022/06/16 07:29:30;;;;;;;4.95;4.13;;;26.10;80.50;;;;;;5055192;28;20189;-69
2022/06/16 07:31:57;;;;;;;5.57;4.18;;;26.00;80.70;;;;;;5055054;28;20181;-69
2022/06/16 07:34:23;;;;;;;5.80;4.38;;;26.50;79.80;;;;;;5054999;28;20652;-69
2022/06/16 07:36:49;;;;;;;5.05;4.35;;;26.90;78.00;;;;;;5054824;28;20600;-69
2022/06/16 07:39:14;;;;;;;6.75;4.35;;;26.90;77.30;;;;;;5054737;28;20197;-69
2022/06/16 07:41:40;;;;;;;5.43;4.55;;;26.90;77.40;;;;;;5054912;28;20184;-69
2022/06/16 07:44:09;;;;;;;6.65;4.25;;;26.50;77.40;;;;;;5054644;28;20186;-69
2022/06/16 07:46:36;;;;;;;7.38;4.60;;;26.50;78.30;;;;;;5054680;28;20596;-69
2022/06/16 07:49:07;;;;;;;8.55;5.63;;;26.70;78.00;;;;;;5054590;28;20522;-69
2022/06/16 07:51:33;;;;;;;12.18;6.75;;;27.20;77.60;;;;;;5054698;28;20182;-69
2022/06/16 07:53:59;;;;;;;6.50;4.47;;;27.40;77.40;;;;;;5054586;28;20184;-70
2022/06/16 07:56:25;;;;;;;6.72;4.20;;;27.90;75.50;;;;;;5054580;28;20173;-69
2022/06/16 07:58:50;;;;;;;6.82;3.92;;;28.70;74.00;;;;;;5054314;28;20203;-69
2022/06/16 08:01:16;;;;;;;6.15;4.28;;;28.60;72.10;;;;;;5054633;28;20641;-70
2022/06/16 08:03:42;;;;;;;6.95;3.90;;;28.90;71.40;;;;;;5054468;28;20184;-69
2022/06/16 08:06:12;;;;;;;5.55;3.95;;;29.00;71.80;;;;;;5054359;28;20652;-68
2022/06/16 08:08:38;;;;;;;6.68;4.47;;;29.30;70.90;;;;;;5054386;28;20201;-70
2022/06/16 08:11:04;;;;;;;5.10;4.38;;;30.10;70.00;;;;;;5054268;28;20256;-69
2022/06/16 08:13:30;;;;;;;5.53;3.95;;;30.00;68.00;;;;;;5054654;28;20169;-69
2022/06/16 08:15:55;;;;;;;4.70;3.67;;;30.20;67.20;;;;;;5054230;28;20250;-69
2022/06/16 08:18:23;;;;;;;5.30;3.40;;;30.10;66.40;;;;;;5053935;28;20339;-69
2022/06/16 08:20:50;;;;;;;5.38;3.13;;;30.10;66.90;;;;;;5054108;28;20209;-68
2022/06/16 08:23:17;;;;;;;4.65;3.45;;;30.40;66.90;;;;;;5054287;28;20180;-69
2022/06/16 08:25:44;;;;;;;5.72;3.13;;;31.30;64.40;;;;;;5054140;28;20184;-69
2022/06/16 08:28:12;;;;;;;4.10;3.58;;;32.10;62.20;;;;;;5054145;28;20173;-70
2022/06/16 08:30:44;;;;;;;3.90;3.03;;;32.80;60.20;;;;;;5053816;28;20663;-69
2022/06/16 08:33:13;;;;;;;3.95;3.00;;;32.70;57.90;;;;;;5053789;28;20189;-69
2022/06/16 08:35:40;;;;;;;7.05;2.95;;;32.80;57.80;;;;;;5053689;28;20539;-69
2022/06/16 08:38:06;;;;;;;4.15;2.75;;;33.10;57.10;;;;;;5053688;28;20189;-69
2022/06/16 08:40:34;;;;;;;6.88;3.00;;;33.40;55.60;;;;;;5053368;28;20263;-69
2022/06/16 08:43:07;;;;;;;3.90;2.90;;;33.20;55.40;;;;;;5053495;28;20173;-69
2022/06/16 08:45:40;;;;;;;4.63;2.97;;;32.30;55.80;;;;;;5053688;28;20183;-69
2022/06/16 08:48:33;;;;;;;3.78;2.90;;;32.00;57.20;;;;;;5033638;28;20186;-69
2022/06/16 08:51:24;;;;;;;3.15;2.67;;;32.00;56.90;;;;;;5033650;28;20513;-69
2022/06/16 08:54:03;;;;;;;3.80;2.38;;;32.30;56.00;;;;;;5033618;28;20175;-69
2022/06/16 08:56:43;;;;;;;3.28;2.80;;;32.00;57.30;;;;;;5033520;28;20174;-70
2022/06/16 08:59:41;;;;;;;4.80;3.13;;;32.10;57.70;;;;;;5033357;28;20673;-69
2022/06/16 09:02:10;;;;;;;4.00;2.58;;;32.10;57.00;;;;;;5033396;28;20326;-69
2022/06/16 09:04:51;;;;;;;7.20;2.92;;;32.40;56.60;;;;;;5033448;28;20179;-69
2022/06/16 09:07:51;;;;;;;3.20;2.90;;;32.80;55.10;;;;;;5033359;28;20177;-69
2022/06/16 09:10:37;;;;;;;2.92;2.28;;;33.50;54.60;;;;;;5032504;28;20284;-69
2022/06/16 09:13:17;;;;;;;2.97;2.30;;;33.80;52.10;;;;;;5033234;28;20178;-70
2022/06/16 09:16:11;;;;;;;3.17;2.50;;;33.80;51.40;;;;;;5033103;28;20235;-70
2022/06/16 09:18:57;;;;;;;5.40;2.50;;;34.00;51.50;;;;;;5033105;28;20225;-69
2022/06/16 09:21:40;;;;;;;4.50;2.15;;;34.20;51.20;;;;;;5032744;28;20212;-68
2022/06/16 09:24:17;;;;;;;3.95;2.60;;;34.20;49.50;;;;;;5032910;28;20192;-69
2022/06/16 09:27:00;;;;;;;2.80;2.30;;;34.00;50.40;;;;;;5033031;28;20597;-69
2022/06/16 09:29:42;;;;;;;3.65;2.28;;;33.60;51.00;;;;;;5033021;28;20196;-69
2022/06/16 09:32:24;;;;;;;4.47;2.55;;;32.90;51.60;;;;;;5032840;28;20186;-69
2022/06/16 09:35:02;;;;;;;2.65;2.45;;;32.90;52.30;;;;;;5032774;28;20537;-68
2022/06/16 09:37:38;;;;;;;3.15;2.70;;;33.30;52.80;;;;;;5032927;28;20260;-69
2022/06/16 09:40:36;;;;;;;2.50;2.30;;;33.70;51.40;;;;;;5042182;28;20303;-68
2022/06/16 09:43:36;;;;;;;2.72;2.13;;;34.00;50.60;;;;;;5051175;28;20189;-68
2022/06/16 09:46:15;;;;;;;4.97;2.40;;;34.50;49.50;;;;;;5052240;28;20173;-68
2022/06/16 09:49:03;;;;;;;5.32;2.30;;;34.50;48.10;;;;;;5052476;28;20271;-69
2022/06/16 09:51:44;;;;;;;2.20;2.00;;;34.10;48.70;;;;;;5052480;28;20252;-69
2022/06/16 09:54:12;;;;;;;2.38;2.05;;;33.90;49.30;;;;;;5051734;28;20192;-69
2022/06/16 09:57:13;;;;;;;2.78;2.33;;;34.00;49.40;;;;;;5051196;28;20208;-68
2022/06/16 09:59:45;;;;;;;5.10;2.60;;;34.40;49.40;;;;;;5031870;28;20284;-69
2022/06/16 10:02:26;;;;;;;6.20;2.33;;;34.90;47.70;;;;;;5051060;28;20189;-70
2022/06/16 10:04:53;;;;;;;3.55;2.30;;;34.90;48.20;;;;;;5051375;28;20200;-70
2022/06/16 10:07:32;;;;;;;4.13;2.50;;;35.20;47.20;;;;;;5051091;28;20181;-71
2022/06/16 10:10:01;;;;;;;6.32;2.30;;;35.40;46.50;;;;;;5049227;28;20164;-70
2022/06/16 10:12:41;;;;;;;4.20;2.30;;;35.50;45.60;;;;;;5061727;28;20651;-71
2022/06/16 10:15:18;;;;;;;2.70;2.28;;;35.50;45.10;;;;;;5066189;28;20184;-71
2022/06/16 10:17:46;;;;;;;2.05;1.90;;;35.40;45.10;;;;;;5053176;28;20579;-70
2022/06/16 10:20:14;;;;;;;2.25;2.05;;;35.10;45.50;;;;;;5067497;28;20227;-69
2022/06/16 10:22:45;;;;;;;7.72;2.72;;;35.00;45.60;;;;;;5072051;28;20593;-70
2022/06/16 10:25:22;;;;;;;3.78;2.30;;;35.10;46.50;;;;;;5071766;28;20187;-70
2022/06/16 10:27:51;;;;;;;2.38;2.00;;;35.20;45.70;;;;;;5052505;28;20182;-69
2022/06/16 10:30:33;;;;;;;3.05;2.40;;;35.10;44.10;;;;;;5051981;28;20169;-70
2022/06/16 10:33:12;;;;;;;3.45;2.65;;;35.00;46.00;;;;;;5063260;28;20176;-70
2022/06/16 10:35:43;;;;;;;2.30;2.10;;;35.20;45.90;;;;;;5032335;28;20249;-70
2022/06/16 10:38:11;;;;;;;2.33;2.10;;;35.20;46.00;;;;;;5035880;28;20180;-70
2022/06/16 10:40:39;;;;;;;4.13;2.20;;;35.10;44.90;;;;;;5051479;28;20220;-71
2022/06/16 10:43:14;;;;;;;4.40;2.30;;;35.00;44.60;;;;;;5051819;28;20215;-71
2022/06/16 10:45:41;;;;;;;4.32;2.25;;;34.60;44.50;;;;;;5051416;28;20212;-71
2022/06/16 10:48:15;;;;;;;5.13;2.17;;;34.60;45.40;;;;;;5051814;28;20184;-71
2022/06/16 10:50:47;;;;;;;2.88;2.00;;;34.80;44.90;;;;;;5051529;28;20222;-71
2022/06/16 10:53:31;;;;;;;3.92;1.98;;;35.10;44.80;;;;;;5051698;28;20173;-71
2022/06/16 10:56:02;;;;;;;2.55;2.35;;;35.30;44.20;;;;;;5051106;28;20184;-71
2022/06/16 10:58:32;;;;;;;5.88;2.60;;;35.40;43.10;;;;;;5051718;28;20181;-71
2022/06/16 11:01:16;;;;;;;2.38;1.98;;;35.40;44.20;;;;;;5051376;28;20300;-70
2022/06/16 11:03:44;;;;;;;3.45;2.00;;;35.40;44.50;;;;;;5042353;28;20201;-71
2022/06/16 11:06:15;;;;;;;5.53;2.42;;;35.60;44.60;;;;;;5055520;28;20594;-71
2022/06/16 11:08:47;;;;;;;3.78;2.40;;;36.00;43.90;;;;;;5055239;28;20515;-71
2022/06/16 11:11:17;;;;;;;3.75;2.20;;;36.00;42.50;;;;;;5055433;28;20632;-70
2022/06/16 11:13:53;;;;;;;3.47;2.35;;;35.70;42.30;;;;;;5054876;28;20650;-68
2022/06/16 11:16:31;;;;;;;3.33;2.10;;;35.30;42.50;;;;;;5055260;28;20180;-71
2022/06/16 11:19:00;;;;;;;9.38;2.30;;;35.20;43.30;;;;;;5054765;28;20701;-68
2022/06/16 11:21:31;;;;;;;4.53;2.20;;;35.20;43.30;;;;;;5055331;28;20185;-68
2022/06/16 11:24:02;;;;;;;2.70;2.20;;;35.10;42.80;;;;;;5054844;28;20196;-69
2022/06/16 11:26:32;;;;;;;4.70;2.25;;;35.10;43.30;;;;;;5055208;28;20187;-69
2022/06/16 11:29:18;;;;;;;6.97;2.47;;;35.10;43.10;;;;;;5053673;28;20536;-68
2022/06/16 11:32:00;;;;;;;3.60;2.45;;;35.10;43.10;;;;;;5055031;28;20196;-68
2022/06/16 11:34:30;;;;;;;6.18;2.50;;;34.70;43.10;;;;;;5056198;28;20242;-68
2022/06/16 11:37:07;;;;;;;2.53;2.33;;;34.40;43.90;;;;;;5055010;28;20177;-68
2022/06/16 11:40:16;;;;;;;6.45;2.08;;;34.20;44.20;;;;;;5054918;28;20345;-68
2022/06/16 11:43:01;;;;;;;8.40;2.40;;;34.10;43.80;;;;;;5054882;28;20188;-69
2022/06/16 11:45:42;;;;;;;4.47;2.20;;;34.30;43.20;;;;;;5055054;28;20188;-69
2022/06/16 11:48:08;;;;;;;4.55;3.22;;;34.40;42.50;;;;;;5048848;28;20183;-69
2022/06/16 11:50:43;;;;;;;5.03;2.50;;;34.50;42.90;;;;;;5054834;28;20177;-69
2022/06/16 11:53:36;;;;;;;3.25;2.30;;;34.30;42.20;;;;;;5054628;28;20180;-68
2022/06/16 11:56:12;;;;;;;4.70;2.05;;;34.30;42.20;;;;;;5054563;28;20176;-69
2022/06/16 11:59:35;;;;;;;2.50;2.30;;;34.30;43.50;;;;;;5054581;28;20200;-67
2022/06/16 12:02:00;;;;;;;3.70;2.35;;;34.40;42.40;;;;;;5012852;28;20554;-68
2022/06/16 12:05:02;;;;;;;4.47;2.35;;;34.50;42.00;;;;;;5012579;28;20183;-67
2022/06/16 12:08:13;;;;;;;2.60;2.40;;;34.40;41.40;;;;;;5047376;28;20181;-68
2022/06/16 12:10:52;;;;;;;3.05;2.40;;;34.30;41.70;;;;;;5034686;28;20548;-68
2022/06/16 12:13:32;;;;;;;3.13;2.78;;;34.30;42.30;;;;;;5053620;28;20181;-68
2022/06/16 12:16:21;;;;;;;4.38;2.47;;;34.20;42.50;;;;;;5054277;28;20187;-68
2022/06/16 12:18:56;;;;;;;4.53;2.40;;;34.20;42.90;;;;;;5052717;28;20670;-68
2022/06/16 12:21:34;;;;;;;3.45;2.33;;;34.40;42.90;;;;;;5053724;28;20189;-67
2022/06/16 12:24:43;;;;;;;3.50;2.33;;;34.60;43.00;;;;;;5054085;28;20173;-68
2022/06/16 12:27:15;;;;;;;4.28;2.72;;;34.60;43.50;;;;;;5041351;28;20199;-69
2022/06/16 12:30:01;;;;;;;3.20;2.13;;;34.60;40.90;;;;;;5053459;28;20235;-68
2022/06/16 12:32:29;;;;;;;3.67;2.13;;;34.50;39.70;;;;;;5053627;28;20193;-68
2022/06/16 12:35:04;;;;;;;4.28;2.40;;;34.60;40.90;;;;;;5052425;28;20180;-68
2022/06/16 12:37:43;;;;;;;3.58;2.20;;;34.70;38.50;;;;;;5053436;28;20658;-63
2022/06/16 12:40:19;;;;;;;2.67;2.10;;;34.60;39.70;;;;;;5053444;28;20220;-64
2022/06/16 12:43:02;;;;;;;2.33;2.13;;;34.50;40.00;;;;;;5053063;28;20185;-64
2022/06/16 12:45:33;;;;;;;3.60;2.30;;;34.30;39.10;;;;;;5033702;28;20656;-64
2022/06/16 12:48:24;;;;;;;4.15;2.10;;;34.20;39.80;;;;;;5052823;28;20723;-64
2022/06/16 12:50:54;;;;;;;3.45;1.90;;;34.00;39.60;;;;;;5053502;28;20169;-64
2022/06/16 12:53:36;;;;;;;2.20;2.00;;;34.00;39.60;;;;;;5053514;28;20656;-64
2022/06/16 12:56:31;;;;;;;2.72;2.10;;;34.00;39.20;;;;;;5053348;28;20192;-64
2022/06/16 12:59:03;;;;;;;3.95;2.38;;;34.00;38.60;;;;;;5033291;28;20189;-64
2022/06/16 13:01:29;;;;;;;3.22;2.10;;;34.10;39.60;;;;;;5034445;28;20273;-64
2022/06/16 13:03:58;;;;;;;3.78;2.10;;;34.00;39.20;;;;;;5052774;28;20396;-64
2022/06/16 13:06:25;;;;;;;2.40;2.08;;;33.90;38.80;;;;;;5053335;28;20187;-65
2022/06/16 13:08:56;;;;;;;6.68;2.28;;;33.80;38.70;;;;;;5034903;28;20584;-64
2022/06/16 13:11:38;;;;;;;2.10;1.85;;;33.70;39.30;;;;;;5052928;28;20537;-64
2022/06/16 13:14:10;;;;;;;3.15;2.30;;;33.80;39.30;;;;;;5053084;28;20177;-64
2022/06/16 13:16:40;;;;;;;4.15;2.25;;;33.80;39.20;;;;;;5052689;28;20181;-64
2022/06/16 13:19:14;;;;;;;5.63;2.10;;;33.70;38.00;;;;;;5052840;28;20224;-64
2022/06/16 13:21:52;;;;;;;2.38;1.80;;;33.60;37.90;;;;;;5052623;28;20189;-63
2022/06/16 13:24:23;;;;;;;2.20;1.95;;;33.40;36.70;;;;;;5051976;28;20177;-63
2022/06/16 13:27:25;;;;;;;3.65;1.75;;;33.40;36.20;;;;;;5052573;28;20601;-63
2022/06/16 13:29:50;;;;;;;3.20;1.60;;;33.40;36.10;;;;;;5048522;28;20191;-63
2022/06/16 13:32:41;;;;;;;2.65;1.77;;;33.30;35.60;;;;;;5052475;28;20260;-63
2022/06/16 13:35:12;;;;;;;2.63;1.73;;;33.20;35.70;;;;;;5052742;28;20193;-63